Meridian — EI6085 — position and weather

sailwx.info

Track history (hours):
 
Tides and Currents Weather Stations Pressure Air Temp Water Temp Dewpoint Dewpoint Depression Visibility Wind Speed Wind Dir Waves Ship Positions

Meridian

Last reported at 2014-Aug-19 13:19 UTC. Time now 2014-Aug-20 14:42 UTC.
Position N 54°38' W 008°27'.

Length 12 m.

Type: Fishing. MMSI: 250107450.

Date/timePositionNaut miles runAvg speedWind from/ knotsBaromVisibWave heightAir tempDewpointWater temp
2014-Aug-19 13:19N 54°38' W 008°27'0 0.5
2014-Aug-19 12:30N 54°38' W 008°26'0 0.3
2014-Aug-19 11:33N 54°38' W 008°27'0 0.0
2014-Aug-19 10:33N 54°38' W 008°27'2 1.6
2014-Aug-19 09:25N 54°36' W 008°27'2 1.8
2014-Aug-19 08:33N 54°38' W 008°26'0 0.3
2014-Aug-19 07:28N 54°38' W 008°27'0 0.0
2014-Aug-17 15:28N 54°38' W 008°27'5 5.6
2014-Aug-17 14:33N 54°36' W 008°35'0 0.0
2014-Aug-17 13:28N 54°36' W 008°35'0 0.0
2014-Aug-17 12:34N 54°36' W 008°35'0 0.1
2014-Aug-17 11:31N 54°36' W 008°35'1 1.0
2014-Aug-17 10:31N 54°36' W 008°33'1 0.9
2014-Aug-17 09:33N 54°36' W 008°32'1 1.4
2014-Aug-17 08:33N 54°36' W 008°29'2 2.2
2014-Aug-17 07:27N 54°38' W 008°27'0 0.0
2014-Aug-16 15:33N 54°38' W 008°27'1 1.4
2014-Aug-16 14:31N 54°37' W 008°27'0 0.0
2014-Aug-16 13:32N 54°37' W 008°27'0 0.0
2014-Aug-16 12:33N 54°37' W 008°27'0 0.0
2014-Aug-16 11:33N 54°37' W 008°27'0 0.0
2014-Aug-16 10:32N 54°37' W 008°27'0 0.0
2014-Aug-16 09:32N 54°37' W 008°27'0 0.1
2014-Aug-16 08:33N 54°37' W 008°27'2 1.5
2014-Aug-16 07:31N 54°38' W 008°27'0 0.0
2014-Aug-15 15:06N 54°38' W 008°27'0 0.3
2014-Aug-15 14:28N 54°38' W 008°27'2 2.7
2014-Aug-15 13:33N 54°36' W 008°29'2 2.1
2014-Aug-15 12:33N 54°37' W 008°33'1 0.9
2014-Aug-15 11:29N 54°36' W 008°34'1 1.1
2014-Aug-15 10:23N 54°35' W 008°33'1 1.0
2014-Aug-15 09:30N 54°35' W 008°32'2 2.5
2014-Aug-15 08:33N 54°36' W 008°28'2 2.2
2014-Aug-15 07:33N 54°38' W 008°27'0 0.0
2014-Aug-14 09:28N 54°38' W 008°27'0 0.0
2014-Aug-13 11:16N 54°38' W 008°27'0 0.3
2014-Aug-13 10:31N 54°38' W 008°27'2 1.8
2014-Aug-13 09:33N 54°36' W 008°27'2 1.6
2014-Aug-13 08:27N 54°38' W 008°27'  
2014-Aug-10 15:33N 54°38' W 008°27'8 8.1
2014-Aug-10 14:33N 54°31' W 008°32'1 1.0
2014-Aug-10 13:31N 54°31' W 008°33'1 1.2
2014-Aug-10 12:30N 54°32' W 008°35'1 1.0
2014-Aug-10 11:29N 54°32' W 008°37'1 0.7
2014-Aug-10 10:28N 54°32' W 008°38'2 1.8
2014-Aug-10 09:32N 54°33' W 008°36'7 6.6
2014-Aug-10 08:27N 54°38' W 008°27'0 0.0
2014-Aug-09 16:19N 54°38' W 008°27'5 6.3
2014-Aug-09 15:33N 54°34' W 008°31'1 1.1
2014-Aug-09 14:32N 54°33' W 008°33'1 0.9
2014-Aug-09 13:30N 54°33' W 008°35'  
Track history (hours):
 
Tides and Currents Weather Stations Pressure Air Temp Water Temp Dewpoint Dewpoint Depression Visibility Wind Speed Wind Dir Waves Ship Positions

Meridian

Last reported at 2014-Aug-19 13:19 UTC. Time now 2014-Aug-20 14:42 UTC.
Position N 54°38' W 008°27'.

Length 12 m.

Type: Fishing. MMSI: 250107450.

Date/timePositionNaut miles runAvg speedWind from/ knotsBaromVisibWave heightAir tempDewpointWater temp
2014-Aug-19 13:19N 54°38' W 008°27'0 0.5
2014-Aug-19 12:30N 54°38' W 008°26'0 0.3
2014-Aug-19 11:33N 54°38' W 008°27'0 0.0
2014-Aug-19 10:33N 54°38' W 008°27'2 1.6
2014-Aug-19 09:25N 54°36' W 008°27'2 1.8
2014-Aug-19 08:33N 54°38' W 008°26'0 0.3
2014-Aug-19 07:28N 54°38' W 008°27'0 0.0
2014-Aug-17 15:28N 54°38' W 008°27'5 5.6
2014-Aug-17 14:33N 54°36' W 008°35'0 0.0
2014-Aug-17 13:28N 54°36' W 008°35'0 0.0
2014-Aug-17 12:34N 54°36' W 008°35'0 0.1
2014-Aug-17 11:31N 54°36' W 008°35'1 1.0
2014-Aug-17 10:31N 54°36' W 008°33'1 0.9
2014-Aug-17 09:33N 54°36' W 008°32'1 1.4
2014-Aug-17 08:33N 54°36' W 008°29'2 2.2
2014-Aug-17 07:27N 54°38' W 008°27'0 0.0
2014-Aug-16 15:33N 54°38' W 008°27'1 1.4
2014-Aug-16 14:31N 54°37' W 008°27'0 0.0
2014-Aug-16 13:32N 54°37' W 008°27'0 0.0
2014-Aug-16 12:33N 54°37' W 008°27'0 0.0
2014-Aug-16 11:33N 54°37' W 008°27'0 0.0
2014-Aug-16 10:32N 54°37' W 008°27'0 0.0
2014-Aug-16 09:32N 54°37' W 008°27'0 0.1
2014-Aug-16 08:33N 54°37' W 008°27'2 1.5
2014-Aug-16 07:31N 54°38' W 008°27'0 0.0
2014-Aug-15 15:06N 54°38' W 008°27'0 0.3
2014-Aug-15 14:28N 54°38' W 008°27'2 2.7
2014-Aug-15 13:33N 54°36' W 008°29'2 2.1
2014-Aug-15 12:33N 54°37' W 008°33'1 0.9
2014-Aug-15 11:29N 54°36' W 008°34'1 1.1
2014-Aug-15 10:23N 54°35' W 008°33'1 1.0
2014-Aug-15 09:30N 54°35' W 008°32'2 2.5
2014-Aug-15 08:33N 54°36' W 008°28'2 2.2
2014-Aug-15 07:33N 54°38' W 008°27'0 0.0
2014-Aug-14 09:28N 54°38' W 008°27'0 0.0
2014-Aug-13 11:16N 54°38' W 008°27'0 0.3
2014-Aug-13 10:31N 54°38' W 008°27'2 1.8
2014-Aug-13 09:33N 54°36' W 008°27'2 1.6
2014-Aug-13 08:27N 54°38' W 008°27'  
2014-Aug-10 15:33N 54°38' W 008°27'8 8.1
2014-Aug-10 14:33N 54°31' W 008°32'1 1.0
2014-Aug-10 13:31N 54°31' W 008°33'1 1.2
2014-Aug-10 12:30N 54°32' W 008°35'1 1.0
2014-Aug-10 11:29N 54°32' W 008°37'1 0.7
2014-Aug-10 10:28N 54°32' W 008°38'2 1.8
2014-Aug-10 09:32N 54°33' W 008°36'7 6.6
2014-Aug-10 08:27N 54°38' W 008°27'0 0.0
2014-Aug-09 16:19N 54°38' W 008°27'5 6.3
2014-Aug-09 15:33N 54°34' W 008°31'1 1.1
2014-Aug-09 14:32N 54°33' W 008°33'1 0.9
2014-Aug-09 13:30N 54°33' W 008°35'  

Dump ship's entire track history